sensor_id;sensor_type;location;lat;lon;timestamp;P1;durP1;ratioP1;P2;durP2;ratioP2
65053;SDS011;51639;47.828;35.038;2023-04-26T00:14:13;4.37;;;3.37;;
65053;SDS011;51639;47.828;35.038;2023-04-26T00:29:15;8.17;;;3.80;;
65053;SDS011;51639;47.828;35.038;2023-04-26T00:44:16;7.13;;;3.70;;
65053;SDS011;51639;47.828;35.038;2023-04-26T00:59:19;5.70;;;4.30;;
65053;SDS011;51639;47.828;35.038;2023-04-26T01:14:21;10.47;;;4.87;;
65053;SDS011;51639;47.828;35.038;2023-04-26T01:29:24;6.97;;;4.27;;
65053;SDS011;51639;47.828;35.038;2023-04-26T01:44:27;11.57;;;5.27;;
65053;SDS011;51639;47.828;35.038;2023-04-26T01:59:29;12.27;;;5.57;;
65053;SDS011;51639;47.828;35.038;2023-04-26T02:14:31;9.33;;;5.43;;
65053;SDS011;51639;47.828;35.038;2023-04-26T02:29:33;79.27;;;6.67;;
65053;SDS011;51639;47.828;35.038;2023-04-26T02:44:44;56.17;;;7.37;;
65053;SDS011;51639;47.828;35.038;2023-04-26T02:59:46;60.03;;;6.93;;
65053;SDS011;51639;47.828;35.038;2023-04-26T03:14:48;41.30;;;7.20;;
65053;SDS011;51639;47.828;35.038;2023-04-26T03:29:50;63.43;;;7.23;;
65053;SDS011;51639;47.828;35.038;2023-04-26T03:44:52;39.13;;;5.43;;
65053;SDS011;51639;47.828;35.038;2023-04-26T03:59:54;37.40;;;6.43;;
65053;SDS011;51639;47.828;35.038;2023-04-26T04:14:56;44.63;;;5.57;;
65053;SDS011;51639;47.828;35.038;2023-04-26T04:29:58;12.60;;;5.17;;
65053;SDS011;51639;47.828;35.038;2023-04-26T04:45:03;14.43;;;5.40;;
65053;SDS011;51639;47.828;35.038;2023-04-26T05:00:06;8.33;;;4.60;;
65053;SDS011;51639;47.828;35.038;2023-04-26T05:15:13;7.53;;;4.70;;
65053;SDS011;51639;47.828;35.038;2023-04-26T05:30:15;5.83;;;3.93;;
65053;SDS011;51639;47.828;35.038;2023-04-26T05:45:17;8.00;;;4.47;;
65053;SDS011;51639;47.828;35.038;2023-04-26T06:00:19;5.60;;;3.97;;
65053;SDS011;51639;47.828;35.038;2023-04-26T06:15:23;4.53;;;3.43;;
65053;SDS011;51639;47.828;35.038;2023-04-26T06:30:26;8.37;;;3.13;;
65053;SDS011;51639;47.828;35.038;2023-04-26T06:45:28;4.97;;;3.23;;
65053;SDS011;51639;47.828;35.038;2023-04-26T07:00:33;6.10;;;3.20;;
65053;SDS011;51639;47.828;35.038;2023-04-26T07:15:35;1.97;;;1.67;;
65053;SDS011;51639;47.828;35.038;2023-04-26T07:30:37;2.08;;;1.30;;
65053;SDS011;51639;47.828;35.038;2023-04-26T07:45:39;2.55;;;1.30;;
65053;SDS011;51639;47.828;35.038;2023-04-26T08:00:42;2.45;;;1.65;;
65053;SDS011;51639;47.828;35.038;2023-04-26T08:15:45;1.50;;;1.23;;
65053;SDS011;51639;47.828;35.038;2023-04-26T08:30:48;3.05;;;1.17;;
65053;SDS011;51639;47.828;35.038;2023-04-26T08:45:50;1.77;;;1.52;;
65053;SDS011;51639;47.828;35.038;2023-04-26T09:00:52;1.80;;;1.35;;
65053;SDS011;51639;47.828;35.038;2023-04-26T09:15:54;3.72;;;1.70;;
65053;SDS011;51639;47.828;35.038;2023-04-26T09:30:57;6.28;;;1.60;;
65053;SDS011;51639;47.828;35.038;2023-04-26T09:45:59;2.30;;;1.92;;
65053;SDS011;51639;47.828;35.038;2023-04-26T10:01:01;2.40;;;1.60;;
65053;SDS011;51639;47.828;35.038;2023-04-26T10:16:04;2.30;;;1.45;;
65053;SDS011;51639;47.828;35.038;2023-04-26T10:31:07;2.07;;;1.37;;
65053;SDS011;51639;47.828;35.038;2023-04-26T10:46:31;2.53;;;1.17;;
65053;SDS011;51639;47.828;35.038;2023-04-26T11:01:35;4.20;;;1.10;;
65053;SDS011;51639;47.828;35.038;2023-04-26T11:16:38;4.97;;;0.83;;
65053;SDS011;51639;47.828;35.038;2023-04-26T11:31:41;2.42;;;0.98;;
65053;SDS011;51639;47.828;35.038;2023-04-26T11:46:43;2.08;;;1.30;;
65053;SDS011;51639;47.828;35.038;2023-04-26T12:01:48;2.20;;;1.37;;
65053;SDS011;51639;47.828;35.038;2023-04-26T12:17:06;1.80;;;1.00;;
65053;SDS011;51639;47.828;35.038;2023-04-26T12:32:08;2.88;;;1.10;;
65053;SDS011;51639;47.828;35.038;2023-04-26T12:47:10;1.77;;;1.30;;
65053;SDS011;51639;47.828;35.038;2023-04-26T13:02:12;2.88;;;1.50;;
65053;SDS011;51639;47.828;35.038;2023-04-26T13:17:14;3.65;;;1.50;;
65053;SDS011;51639;47.828;35.038;2023-04-26T13:32:16;2.38;;;1.60;;
65053;SDS011;51639;47.828;35.038;2023-04-26T13:47:18;1.85;;;1.40;;
65053;SDS011;51639;47.828;35.038;2023-04-26T14:02:20;5.93;;;1.50;;
65053;SDS011;51639;47.828;35.038;2023-04-26T14:17:23;3.30;;;1.42;;
65053;SDS011;51639;47.828;35.038;2023-04-26T14:32:26;1.67;;;1.08;;
65053;SDS011;51639;47.828;35.038;2023-04-26T14:47:32;3.17;;;1.45;;
65053;SDS011;51639;47.828;35.038;2023-04-26T15:02:34;3.08;;;1.35;;
65053;SDS011;51639;47.828;35.038;2023-04-26T15:17:36;3.35;;;1.50;;
65053;SDS011;51639;47.828;35.038;2023-04-26T15:32:39;3.65;;;1.50;;
65053;SDS011;51639;47.828;35.038;2023-04-26T15:47:41;5.20;;;1.60;;
65053;SDS011;51639;47.828;35.038;2023-04-26T16:02:44;4.10;;;2.13;;
65053;SDS011;51639;47.828;35.038;2023-04-26T16:17:46;5.22;;;1.95;;
65053;SDS011;51639;47.828;35.038;2023-04-26T16:32:48;14.07;;;6.13;;
65053;SDS011;51639;47.828;35.038;2023-04-26T16:47:50;4.30;;;1.90;;
65053;SDS011;51639;47.828;35.038;2023-04-26T17:02:52;5.40;;;2.43;;
65053;SDS011;51639;47.828;35.038;2023-04-26T17:17:55;5.60;;;2.47;;
65053;SDS011;51639;47.828;35.038;2023-04-26T17:32:57;4.78;;;2.53;;
65053;SDS011;51639;47.828;35.038;2023-04-26T17:47:59;7.00;;;2.47;;
65053;SDS011;51639;47.828;35.038;2023-04-26T18:03:01;7.77;;;2.40;;
65053;SDS011;51639;47.828;35.038;2023-04-26T18:18:05;6.07;;;1.80;;
65053;SDS011;51639;47.828;35.038;2023-04-26T18:33:08;6.30;;;2.90;;
65053;SDS011;51639;47.828;35.038;2023-04-26T18:48:10;6.80;;;2.43;;
65053;SDS011;51639;47.828;35.038;2023-04-26T19:03:12;4.87;;;2.30;;
65053;SDS011;51639;47.828;35.038;2023-04-26T19:18:15;5.20;;;2.47;;
65053;SDS011;51639;47.828;35.038;2023-04-26T19:33:18;5.90;;;2.43;;
65053;SDS011;51639;47.828;35.038;2023-04-26T19:48:20;5.13;;;2.33;;
65053;SDS011;51639;47.828;35.038;2023-04-26T20:03:22;4.33;;;2.33;;
65053;SDS011;51639;47.828;35.038;2023-04-26T20:18:25;5.60;;;2.43;;
65053;SDS011;51639;47.828;35.038;2023-04-26T20:33:27;4.60;;;2.70;;
65053;SDS011;51639;47.828;35.038;2023-04-26T20:48:29;6.97;;;2.87;;
65053;SDS011;51639;47.828;35.038;2023-04-26T21:03:31;6.03;;;3.67;;
65053;SDS011;51639;47.828;35.038;2023-04-26T21:18:35;6.93;;;3.40;;
65053;SDS011;51639;47.828;35.038;2023-04-26T21:33:37;5.00;;;2.97;;
65053;SDS011;51639;47.828;35.038;2023-04-26T21:48:41;8.63;;;3.20;;
65053;SDS011;51639;47.828;35.038;2023-04-26T22:03:44;5.93;;;3.40;;
65053;SDS011;51639;47.828;35.038;2023-04-26T22:18:46;9.13;;;3.90;;
65053;SDS011;51639;47.828;35.038;2023-04-26T22:33:49;4.97;;;3.37;;
65053;SDS011;51639;47.828;35.038;2023-04-26T22:48:51;4.97;;;3.10;;
65053;SDS011;51639;47.828;35.038;2023-04-26T23:03:54;3.87;;;2.60;;
65053;SDS011;51639;47.828;35.038;2023-04-26T23:18:56;4.03;;;2.43;;
65053;SDS011;51639;47.828;35.038;2023-04-26T23:33:58;4.20;;;2.97;;
65053;SDS011;51639;47.828;35.038;2023-04-26T23:49:00;5.07;;;3.17;;
